Aérodrome :
LOGIN :

S'inscrire | Disclaimer

   EN    FR    IT 

 










Légende :    VFR   VFR Marginal   IFR   IFR Intensif   IFR Très Intensif
Visi : 
Plafond : 
>= 8 km
>= 3000ft
5 à 8 km
1000 à 3000 ft
1500m à 5 km
500 à 1000 ft
800 à 1500m
200 à 500 ft
< 800m
< 200 ft
Symboles :   Orages  Brouillard  Fortes neiges  Fortes précipitations  Vent > 20 kt
SIGMETs :   Divers  Orages  Givrage  Turbulence  Onde Orograph.  Cendres Volcan.







- Altitude de l'aérodrome : 1768 ft


LEHC - Huesca Pirineos

DERNIER METAR :
  • 231500Z 25007KT 210V290 9999 FEW030 15/10 Q1026

METARs EXPIRÉS :
  • 231430Z 25008KT 210V310 9999 FEW030 15/10 Q1026
  • 231400Z 24006KT 160V290 9999 FEW030 16/08 Q1026
  • 231330Z 24004KT 200V290 9999 FEW030 15/09 Q1026
  • 231300Z 23004KT 190V300 9999 FEW030 15/08 Q1027
  • 231230Z 23003KT 200V280 9999 FEW030 14/07 Q1027

TAF TAF LEHC
Valide du 23 à 15h jusqu'au 24 à 15h UTC


231400Z 2315/2415 28006KT 9999 FEW030 TX19/2414Z TN04/2407Z
BECMG 2318/2320 VRB03KT
BECMG 2401/2403 09008KT
Pas de NOTAMs connus pour ce terrain.



MET'MAP, la Météo Aéronautique d'un coup d'oeil ! - Copyright ORBIFLY Décembre 2007 - Disclaimer

ORBIFLY MET'MAP TEAM :

Programmation & Développement : Alexandra Zaïnal
Conception & Développement : Baudouin d'Aumeries
Co-Programmation & Développement : Marc-Olivier Méhu
Soutien technique & logistique : Manuel Goepfert

Contact : metmap@orbifly.com




SOURCES & CREDITS :

   NOAA